sensor_id;sensor_type;location;lat;lon;timestamp;temperature;humidity
12053;DHT22;6087;48.982;12.064;2022-12-01T00:00:31;4.10;3.10
12053;DHT22;6087;48.982;12.064;2022-12-01T00:02:58;4.00;99.90
12053;DHT22;6087;48.982;12.064;2022-12-01T00:05:25;4.00;30.80
12053;DHT22;6087;48.982;12.064;2022-12-01T00:07:53;4.00;1.00
12053;DHT22;6087;48.982;12.064;2022-12-01T00:10:21;4.10;1.00
12053;DHT22;6087;48.982;12.064;2022-12-01T00:12:50;4.10;1.00
12053;DHT22;6087;48.982;12.064;2022-12-01T00:15:17;4.10;99.90
12053;DHT22;6087;48.982;12.064;2022-12-01T00:17:44;4.10;99.90
12053;DHT22;6087;48.982;12.064;2022-12-01T00:20:12;4.10;1.00
12053;DHT22;6087;48.982;12.064;2022-12-01T00:22:42;4.10;99.90
12053;DHT22;6087;48.982;12.064;2022-12-01T00:25:11;4.10;1.00
12053;DHT22;6087;48.982;12.064;2022-12-01T00:27:38;4.10;1.00
12053;DHT22;6087;48.982;12.064;2022-12-01T00:30:08;4.10;1.00
12053;DHT22;6087;48.982;12.064;2022-12-01T00:32:35;4.10;1.00
12053;DHT22;6087;48.982;12.064;2022-12-01T00:35:03;4.20;99.90
12053;DHT22;6087;48.982;12.064;2022-12-01T00:37:32;4.20;1.00
12053;DHT22;6087;48.982;12.064;2022-12-01T00:39:59;4.20;99.90
12053;DHT22;6087;48.982;12.064;2022-12-01T00:42:28;4.20;1.00
12053;DHT22;6087;48.982;12.064;2022-12-01T00:44:55;4.10;1.00
12053;DHT22;6087;48.982;12.064;2022-12-01T00:47:22;4.20;1.00
12053;DHT22;6087;48.982;12.064;2022-12-01T00:49:49;4.20;1.00
12053;DHT22;6087;48.982;12.064;2022-12-01T00:52:17;4.20;1.00
12053;DHT22;6087;48.982;12.064;2022-12-01T00:54:45;4.20;1.00
12053;DHT22;6087;48.982;12.064;2022-12-01T00:57:12;4.10;1.00
12053;DHT22;6087;48.982;12.064;2022-12-01T00:59:41;4.10;64.30
12053;DHT22;6087;48.982;12.064;2022-12-01T01:02:08;4.10;99.90
12053;DHT22;6087;48.982;12.064;2022-12-01T01:04:35;4.10;99.90
12053;DHT22;6087;48.982;12.064;2022-12-01T01:07:02;4.10;1.00
12053;DHT22;6087;48.982;12.064;2022-12-01T01:09:30;4.10;1.00
12053;DHT22;6087;48.982;12.064;2022-12-01T01:11:58;4.00;1.00
12053;DHT22;6087;48.982;12.064;2022-12-01T01:14:25;4.00;1.00
12053;DHT22;6087;48.982;12.064;2022-12-01T01:16:53;4.00;1.00
12053;DHT22;6087;48.982;12.064;2022-12-01T01:19:21;4.00;1.00
12053;DHT22;6087;48.982;12.064;2022-12-01T01:21:48;4.00;1.00
12053;DHT22;6087;48.982;12.064;2022-12-01T01:24:15;4.00;99.90
12053;DHT22;6087;48.982;12.064;2022-12-01T01:26:42;4.00;99.90
12053;DHT22;6087;48.982;12.064;2022-12-01T01:29:09;4.00;98.60
12053;DHT22;6087;48.982;12.064;2022-12-01T01:31:36;3.90;99.90
12053;DHT22;6087;48.982;12.064;2022-12-01T01:34:05;3.90;99.90
12053;DHT22;6087;48.982;12.064;2022-12-01T01:36:32;4.00;76.80
12053;DHT22;6087;48.982;12.064;2022-12-01T01:39:00;4.00;80.10
12053;DHT22;6087;48.982;12.064;2022-12-01T01:41:27;4.00;1.00
12053;DHT22;6087;48.982;12.064;2022-12-01T01:43:56;3.90;1.00
12053;DHT22;6087;48.982;12.064;2022-12-01T01:46:25;3.90;99.90
12053;DHT22;6087;48.982;12.064;2022-12-01T01:48:54;4.00;1.00
12053;DHT22;6087;48.982;12.064;2022-12-01T01:51:27;4.00;1.00
12053;DHT22;6087;48.982;12.064;2022-12-01T01:54:03;3.90;99.90
12053;DHT22;6087;48.982;12.064;2022-12-01T01:56:33;3.90;99.90
12053;DHT22;6087;48.982;12.064;2022-12-01T01:59:00;3.90;1.00
12053;DHT22;6087;48.982;12.064;2022-12-01T02:01:28;3.90;99.90
12053;DHT22;6087;48.982;12.064;2022-12-01T02:03:55;3.90;1.00
12053;DHT22;6087;48.982;12.064;2022-12-01T02:06:24;3.90;1.00
12053;DHT22;6087;48.982;12.064;2022-12-01T02:08:51;3.90;1.00
12053;DHT22;6087;48.982;12.064;2022-12-01T02:11:37;3.90;1.00
12053;DHT22;6087;48.982;12.064;2022-12-01T02:14:25;3.90;99.90
12053;DHT22;6087;48.982;12.064;2022-12-01T02:16:58;3.90;99.90
12053;DHT22;6087;48.982;12.064;2022-12-01T02:19:42;3.80;99.90
12053;DHT22;6087;48.982;12.064;2022-12-01T02:22:20;3.80;99.90
12053;DHT22;6087;48.982;12.064;2022-12-01T02:25:20;3.70;99.90
12053;DHT22;6087;48.982;12.064;2022-12-01T02:30:44;3.60;99.90
12053;DHT22;6087;48.982;12.064;2022-12-01T02:33:17;3.60;99.90
12053;DHT22;6087;48.982;12.064;2022-12-01T02:35:48;3.60;1.00
12053;DHT22;6087;48.982;12.064;2022-12-01T02:38:23;3.50;1.00
12053;DHT22;6087;48.982;12.064;2022-12-01T02:40:55;3.50;35.60
12053;DHT22;6087;48.982;12.064;2022-12-01T02:43:28;3.50;1.00
12053;DHT22;6087;48.982;12.064;2022-12-01T02:45:59;3.50;1.00
12053;DHT22;6087;48.982;12.064;2022-12-01T02:48:31;3.40;65.10
12053;DHT22;6087;48.982;12.064;2022-12-01T02:51:04;3.40;1.00
12053;DHT22;6087;48.982;12.064;2022-12-01T02:53:33;3.40;1.00
12053;DHT22;6087;48.982;12.064;2022-12-01T02:56:04;3.40;1.00
12053;DHT22;6087;48.982;12.064;2022-12-01T02:58:31;3.30;1.00
12053;DHT22;6087;48.982;12.064;2022-12-01T03:01:15;3.40;99.90
12053;DHT22;6087;48.982;12.064;2022-12-01T03:03:59;3.40;99.90
12053;DHT22;6087;48.982;12.064;2022-12-01T03:06:35;3.30;1.00
12053;DHT22;6087;48.982;12.064;2022-12-01T03:09:11;3.20;1.00
12053;DHT22;6087;48.982;12.064;2022-12-01T03:11:47;3.10;99.90
12053;DHT22;6087;48.982;12.064;2022-12-01T03:14:21;3.10;99.90
12053;DHT22;6087;48.982;12.064;2022-12-01T03:16:52;3.00;99.90
12053;DHT22;6087;48.982;12.064;2022-12-01T03:19:23;3.00;1.00
12053;DHT22;6087;48.982;12.064;2022-12-01T03:21:57;3.00;1.00
12053;DHT22;6087;48.982;12.064;2022-12-01T03:24:26;3.00;1.00
12053;DHT22;6087;48.982;12.064;2022-12-01T03:26:59;3.00;99.90
12053;DHT22;6087;48.982;12.064;2022-12-01T03:29:31;2.90;99.90
12053;DHT22;6087;48.982;12.064;2022-12-01T03:32:05;2.90;1.00
12053;DHT22;6087;48.982;12.064;2022-12-01T03:34:37;2.90;1.00
12053;DHT22;6087;48.982;12.064;2022-12-01T03:37:09;2.80;99.90
12053;DHT22;6087;48.982;12.064;2022-12-01T03:39:39;2.80;99.90
12053;DHT22;6087;48.982;12.064;2022-12-01T03:42:11;2.80;1.00
12053;DHT22;6087;48.982;12.064;2022-12-01T03:44:42;2.90;7.90
12053;DHT22;6087;48.982;12.064;2022-12-01T03:47:15;2.90;1.00
12053;DHT22;6087;48.982;12.064;2022-12-01T03:49:46;2.90;99.90
12053;DHT22;6087;48.982;12.064;2022-12-01T03:52:20;2.90;99.90
12053;DHT22;6087;48.982;12.064;2022-12-01T03:54:57;2.90;99.90
12053;DHT22;6087;48.982;12.064;2022-12-01T03:57:30;3.00;99.90
12053;DHT22;6087;48.982;12.064;2022-12-01T03:59:59;3.10;99.90
12053;DHT22;6087;48.982;12.064;2022-12-01T04:02:28;3.10;99.90
12053;DHT22;6087;48.982;12.064;2022-12-01T04:04:55;3.20;99.90
12053;DHT22;6087;48.982;12.064;2022-12-01T04:07:22;3.20;99.90
12053;DHT22;6087;48.982;12.064;2022-12-01T04:09:49;3.20;99.90
12053;DHT22;6087;48.982;12.064;2022-12-01T04:12:17;3.20;99.90
12053;DHT22;6087;48.982;12.064;2022-12-01T04:14:55;3.20;1.00
12053;DHT22;6087;48.982;12.064;2022-12-01T04:17:23;3.20;99.90
12053;DHT22;6087;48.982;12.064;2022-12-01T04:19:52;3.20;99.90
12053;DHT22;6087;48.982;12.064;2022-12-01T04:22:19;3.20;99.90
12053;DHT22;6087;48.982;12.064;2022-12-01T04:24:46;3.20;99.90
12053;DHT22;6087;48.982;12.064;2022-12-01T04:27:13;3.20;99.90
12053;DHT22;6087;48.982;12.064;2022-12-01T04:29:40;3.20;99.90
12053;DHT22;6087;48.982;12.064;2022-12-01T04:32:07;3.20;99.90
12053;DHT22;6087;48.982;12.064;2022-12-01T04:34:34;3.20;99.90
12053;DHT22;6087;48.982;12.064;2022-12-01T04:37:04;3.20;1.00
12053;DHT22;6087;48.982;12.064;2022-12-01T04:39:32;3.20;99.90
12053;DHT22;6087;48.982;12.064;2022-12-01T04:41:59;3.20;99.90
12053;DHT22;6087;48.982;12.064;2022-12-01T04:44:25;3.10;34.10
12053;DHT22;6087;48.982;12.064;2022-12-01T04:46:52;3.10;1.00
12053;DHT22;6087;48.982;12.064;2022-12-01T04:49:20;3.20;99.90
12053;DHT22;6087;48.982;12.064;2022-12-01T04:51:47;3.20;1.00
12053;DHT22;6087;48.982;12.064;2022-12-01T04:54:16;3.20;95.60
12053;DHT22;6087;48.982;12.064;2022-12-01T04:56:44;3.20;99.90
12053;DHT22;6087;48.982;12.064;2022-12-01T04:59:11;3.20;99.90
12053;DHT22;6087;48.982;12.064;2022-12-01T05:01:38;3.20;1.00
12053;DHT22;6087;48.982;12.064;2022-12-01T05:04:05;3.30;1.00
12053;DHT22;6087;48.982;12.064;2022-12-01T05:06:32;3.30;99.90
12053;DHT22;6087;48.982;12.064;2022-12-01T05:09:00;3.30;1.00
12053;DHT22;6087;48.982;12.064;2022-12-01T05:11:30;3.30;99.90
12053;DHT22;6087;48.982;12.064;2022-12-01T05:13:58;3.30;1.00
12053;DHT22;6087;48.982;12.064;2022-12-01T05:16:26;3.30;99.90
12053;DHT22;6087;48.982;12.064;2022-12-01T05:18:55;3.30;1.00
12053;DHT22;6087;48.982;12.064;2022-12-01T05:21:37;3.30;99.90
12053;DHT22;6087;48.982;12.064;2022-12-01T05:24:05;3.30;99.90
12053;DHT22;6087;48.982;12.064;2022-12-01T05:26:33;3.30;99.90
12053;DHT22;6087;48.982;12.064;2022-12-01T05:29:00;3.30;99.90
12053;DHT22;6087;48.982;12.064;2022-12-01T05:31:27;3.30;99.90
12053;DHT22;6087;48.982;12.064;2022-12-01T05:33:54;3.30;99.90
12053;DHT22;6087;48.982;12.064;2022-12-01T05:36:21;3.30;99.90
12053;DHT22;6087;48.982;12.064;2022-12-01T05:38:48;3.30;99.90
12053;DHT22;6087;48.982;12.064;2022-12-01T05:41:16;3.30;93.10
12053;DHT22;6087;48.982;12.064;2022-12-01T05:43:44;3.30;1.00
12053;DHT22;6087;48.982;12.064;2022-12-01T05:46:11;3.20;99.90
12053;DHT22;6087;48.982;12.064;2022-12-01T05:48:38;3.10;15.10
12053;DHT22;6087;48.982;12.064;2022-12-01T05:51:08;3.10;1.40
12053;DHT22;6087;48.982;12.064;2022-12-01T05:53:36;3.10;1.00
12053;DHT22;6087;48.982;12.064;2022-12-01T05:56:03;3.10;84.00
12053;DHT22;6087;48.982;12.064;2022-12-01T05:58:30;3.10;94.10
12053;DHT22;6087;48.982;12.064;2022-12-01T06:00:59;3.10;99.90
12053;DHT22;6087;48.982;12.064;2022-12-01T06:03:26;3.10;1.00
12053;DHT22;6087;48.982;12.064;2022-12-01T06:05:53;3.10;1.00
12053;DHT22;6087;48.982;12.064;2022-12-01T06:08:19;3.00;99.90
12053;DHT22;6087;48.982;12.064;2022-12-01T06:10:46;2.90;99.90
12053;DHT22;6087;48.982;12.064;2022-12-01T06:13:13;3.00;99.90
12053;DHT22;6087;48.982;12.064;2022-12-01T06:15:40;2.90;1.00
12053;DHT22;6087;48.982;12.064;2022-12-01T06:18:09;2.90;99.90
12053;DHT22;6087;48.982;12.064;2022-12-01T06:20:36;2.90;99.90
12053;DHT22;6087;48.982;12.064;2022-12-01T06:23:03;3.00;99.90
12053;DHT22;6087;48.982;12.064;2022-12-01T06:25:30;3.00;99.90
12053;DHT22;6087;48.982;12.064;2022-12-01T06:27:57;3.00;99.90
12053;DHT22;6087;48.982;12.064;2022-12-01T06:30:24;3.00;1.00
12053;DHT22;6087;48.982;12.064;2022-12-01T06:32:52;3.00;1.00
12053;DHT22;6087;48.982;12.064;2022-12-01T06:35:21;3.00;1.00
12053;DHT22;6087;48.982;12.064;2022-12-01T06:37:48;3.00;99.90
12053;DHT22;6087;48.982;12.064;2022-12-01T06:40:15;3.00;99.90
12053;DHT22;6087;48.982;12.064;2022-12-01T06:42:42;3.00;99.90
12053;DHT22;6087;48.982;12.064;2022-12-01T06:45:10;3.10;1.00
12053;DHT22;6087;48.982;12.064;2022-12-01T06:47:37;3.10;99.90
12053;DHT22;6087;48.982;12.064;2022-12-01T06:50:05;3.10;1.00
12053;DHT22;6087;48.982;12.064;2022-12-01T06:52:36;3.10;99.90
12053;DHT22;6087;48.982;12.064;2022-12-01T06:55:03;3.20;99.90
12053;DHT22;6087;48.982;12.064;2022-12-01T06:57:30;3.20;99.90
12053;DHT22;6087;48.982;12.064;2022-12-01T06:59:57;3.20;99.90
12053;DHT22;6087;48.982;12.064;2022-12-01T07:02:24;3.20;99.90
12053;DHT22;6087;48.982;12.064;2022-12-01T07:04:51;3.20;99.90
12053;DHT22;6087;48.982;12.064;2022-12-01T07:07:18;3.20;98.00
12053;DHT22;6087;48.982;12.064;2022-12-01T07:09:47;3.20;1.00
12053;DHT22;6087;48.982;12.064;2022-12-01T07:12:13;3.30;99.90
12053;DHT22;6087;48.982;12.064;2022-12-01T07:14:40;3.30;99.90
12053;DHT22;6087;48.982;12.064;2022-12-01T07:17:08;3.40;1.00
12053;DHT22;6087;48.982;12.064;2022-12-01T07:19:35;3.40;1.00
12053;DHT22;6087;48.982;12.064;2022-12-01T07:22:02;3.40;99.90
12053;DHT22;6087;48.982;12.064;2022-12-01T07:24:29;3.50;99.90
12053;DHT22;6087;48.982;12.064;2022-12-01T07:26:58;3.50;99.90
12053;DHT22;6087;48.982;12.064;2022-12-01T07:29:25;3.50;99.90
12053;DHT22;6087;48.982;12.064;2022-12-01T07:31:52;3.60;1.00
12053;DHT22;6087;48.982;12.064;2022-12-01T07:34:19;3.60;1.00
12053;DHT22;6087;48.982;12.064;2022-12-01T07:36:46;3.60;1.00
12053;DHT22;6087;48.982;12.064;2022-12-01T07:39:13;3.60;1.00
12053;DHT22;6087;48.982;12.064;2022-12-01T07:41:39;3.60;1.00
12053;DHT22;6087;48.982;12.064;2022-12-01T07:44:10;3.70;99.90
12053;DHT22;6087;48.982;12.064;2022-12-01T07:46:37;3.70;99.90
12053;DHT22;6087;48.982;12.064;2022-12-01T07:49:05;3.60;1.00
12053;DHT22;6087;48.982;12.064;2022-12-01T07:51:33;3.70;1.00
12053;DHT22;6087;48.982;12.064;2022-12-01T07:54:02;3.70;99.90
12053;DHT22;6087;48.982;12.064;2022-12-01T07:56:29;3.70;1.00
12053;DHT22;6087;48.982;12.064;2022-12-01T07:58:56;3.80;1.00
12053;DHT22;6087;48.982;12.064;2022-12-01T08:01:25;3.80;1.00
12053;DHT22;6087;48.982;12.064;2022-12-01T08:03:53;3.80;1.00
12053;DHT22;6087;48.982;12.064;2022-12-01T08:06:22;3.90;1.00
12053;DHT22;6087;48.982;12.064;2022-12-01T08:08:49;3.90;1.00
12053;DHT22;6087;48.982;12.064;2022-12-01T08:11:18;3.90;1.00
12053;DHT22;6087;48.982;12.064;2022-12-01T08:13:45;4.00;99.90
12053;DHT22;6087;48.982;12.064;2022-12-01T08:16:14;4.00;1.00
12053;DHT22;6087;48.982;12.064;2022-12-01T08:18:43;4.00;99.90
12053;DHT22;6087;48.982;12.064;2022-12-01T08:21:11;4.10;99.90
12053;DHT22;6087;48.982;12.064;2022-12-01T08:23:38;4.10;99.90
12053;DHT22;6087;48.982;12.064;2022-12-01T08:26:07;4.20;82.60
12053;DHT22;6087;48.982;12.064;2022-12-01T08:28:37;4.20;1.00
12053;DHT22;6087;48.982;12.064;2022-12-01T08:31:09;4.20;99.90
12053;DHT22;6087;48.982;12.064;2022-12-01T08:33:36;4.30;99.90
12053;DHT22;6087;48.982;12.064;2022-12-01T08:36:05;4.30;99.90
12053;DHT22;6087;48.982;12.064;2022-12-01T08:38:33;4.30;1.00
12053;DHT22;6087;48.982;12.064;2022-12-01T08:41:00;4.40;99.90
12053;DHT22;6087;48.982;12.064;2022-12-01T08:43:27;4.40;1.00
12053;DHT22;6087;48.982;12.064;2022-12-01T08:45:57;4.50;99.90
12053;DHT22;6087;48.982;12.064;2022-12-01T08:48:24;4.50;99.90
12053;DHT22;6087;48.982;12.064;2022-12-01T08:51:00;4.50;99.90
12053;DHT22;6087;48.982;12.064;2022-12-01T08:53:29;4.60;99.90
12053;DHT22;6087;48.982;12.064;2022-12-01T08:55:58;4.60;7.40
12053;DHT22;6087;48.982;12.064;2022-12-01T08:58:26;4.60;1.00
12053;DHT22;6087;48.982;12.064;2022-12-01T09:01:00;4.70;99.90
12053;DHT22;6087;48.982;12.064;2022-12-01T09:03:27;4.70;1.00
12053;DHT22;6087;48.982;12.064;2022-12-01T09:05:54;4.70;99.90
12053;DHT22;6087;48.982;12.064;2022-12-01T09:08:26;4.80;1.00
12053;DHT22;6087;48.982;12.064;2022-12-01T09:11:04;4.90;99.90
12053;DHT22;6087;48.982;12.064;2022-12-01T09:13:33;4.90;1.00
12053;DHT22;6087;48.982;12.064;2022-12-01T09:16:02;4.90;99.90
12053;DHT22;6087;48.982;12.064;2022-12-01T09:18:30;5.00;1.00
12053;DHT22;6087;48.982;12.064;2022-12-01T09:20:57;4.90;1.00
12053;DHT22;6087;48.982;12.064;2022-12-01T09:23:25;4.90;1.00
12053;DHT22;6087;48.982;12.064;2022-12-01T09:25:52;5.00;99.90
12053;DHT22;6087;48.982;12.064;2022-12-01T09:28:20;5.00;99.90
12053;DHT22;6087;48.982;12.064;2022-12-01T09:30:48;5.00;99.90
12053;DHT22;6087;48.982;12.064;2022-12-01T09:33:15;5.00;1.00
12053;DHT22;6087;48.982;12.064;2022-12-01T09:35:42;5.00;1.00
12053;DHT22;6087;48.982;12.064;2022-12-01T09:38:09;5.00;99.90
12053;DHT22;6087;48.982;12.064;2022-12-01T09:40:39;5.00;1.00
12053;DHT22;6087;48.982;12.064;2022-12-01T09:43:14;5.00;1.00
12053;DHT22;6087;48.982;12.064;2022-12-01T09:45:47;5.00;1.00
12053;DHT22;6087;48.982;12.064;2022-12-01T09:48:23;5.10;1.00
12053;DHT22;6087;48.982;12.064;2022-12-01T09:50:52;5.30;99.90
12053;DHT22;6087;48.982;12.064;2022-12-01T09:53:21;5.30;1.00
12053;DHT22;6087;48.982;12.064;2022-12-01T09:55:49;5.30;1.00
12053;DHT22;6087;48.982;12.064;2022-12-01T09:58:19;5.30;99.90
12053;DHT22;6087;48.982;12.064;2022-12-01T10:00:50;5.40;99.90
12053;DHT22;6087;48.982;12.064;2022-12-01T10:03:27;5.40;99.90
12053;DHT22;6087;48.982;12.064;2022-12-01T10:06:01;5.40;1.00
12053;DHT22;6087;48.982;12.064;2022-12-01T10:08:33;5.40;1.00
12053;DHT22;6087;48.982;12.064;2022-12-01T10:11:07;5.40;1.00
12053;DHT22;6087;48.982;12.064;2022-12-01T10:13:39;5.40;1.00
12053;DHT22;6087;48.982;12.064;2022-12-01T10:16:08;5.50;1.00
12053;DHT22;6087;48.982;12.064;2022-12-01T10:18:48;5.40;1.00
12053;DHT22;6087;48.982;12.064;2022-12-01T10:21:26;5.50;1.00
12053;DHT22;6087;48.982;12.064;2022-12-01T10:24:16;5.50;90.80
12053;DHT22;6087;48.982;12.064;2022-12-01T10:26:52;5.50;99.90
12053;DHT22;6087;48.982;12.064;2022-12-01T10:29:27;5.60;1.00
12053;DHT22;6087;48.982;12.064;2022-12-01T10:31:57;5.60;99.90
12053;DHT22;6087;48.982;12.064;2022-12-01T10:34:27;5.70;1.00
12053;DHT22;6087;48.982;12.064;2022-12-01T10:36:55;5.70;1.00
12053;DHT22;6087;48.982;12.064;2022-12-01T10:39:27;5.80;1.00
12053;DHT22;6087;48.982;12.064;2022-12-01T10:42:11;5.80;1.00
12053;DHT22;6087;48.982;12.064;2022-12-01T10:44:39;5.90;99.90
12053;DHT22;6087;48.982;12.064;2022-12-01T10:47:16;5.90;99.90
12053;DHT22;6087;48.982;12.064;2022-12-01T10:49:44;5.90;99.90
12053;DHT22;6087;48.982;12.064;2022-12-01T10:52:34;5.90;1.00
12053;DHT22;6087;48.982;12.064;2022-12-01T10:55:04;5.90;99.90
12053;DHT22;6087;48.982;12.064;2022-12-01T10:57:32;5.90;1.00
12053;DHT22;6087;48.982;12.064;2022-12-01T11:00:02;5.90;99.90
12053;DHT22;6087;48.982;12.064;2022-12-01T11:02:32;5.90;99.90
12053;DHT22;6087;48.982;12.064;2022-12-01T11:05:00;5.90;99.90
12053;DHT22;6087;48.982;12.064;2022-12-01T11:07:30;5.90;1.00
12053;DHT22;6087;48.982;12.064;2022-12-01T11:10:14;5.90;1.00
12053;DHT22;6087;48.982;12.064;2022-12-01T11:12:43;5.80;94.60
12053;DHT22;6087;48.982;12.064;2022-12-01T11:15:19;5.80;1.00
12053;DHT22;6087;48.982;12.064;2022-12-01T11:17:56;5.80;99.90
12053;DHT22;6087;48.982;12.064;2022-12-01T11:20:27;5.80;99.90
12053;DHT22;6087;48.982;12.064;2022-12-01T11:23:23;5.80;99.90
12053;DHT22;6087;48.982;12.064;2022-12-01T11:26:10;5.80;99.90
12053;DHT22;6087;48.982;12.064;2022-12-01T11:28:50;5.80;99.90
12053;DHT22;6087;48.982;12.064;2022-12-01T11:31:18;5.90;99.90
12053;DHT22;6087;48.982;12.064;2022-12-01T11:33:49;5.90;99.90
12053;DHT22;6087;48.982;12.064;2022-12-01T11:36:26;5.90;99.90
12053;DHT22;6087;48.982;12.064;2022-12-01T11:38:59;5.90;99.90
12053;DHT22;6087;48.982;12.064;2022-12-01T11:41:30;5.80;99.90
12053;DHT22;6087;48.982;12.064;2022-12-01T11:44:00;5.80;1.00
12053;DHT22;6087;48.982;12.064;2022-12-01T11:46:31;5.80;1.00
12053;DHT22;6087;48.982;12.064;2022-12-01T11:49:01;5.80;1.00
12053;DHT22;6087;48.982;12.064;2022-12-01T11:51:30;5.80;1.00
12053;DHT22;6087;48.982;12.064;2022-12-01T11:54:11;5.80;1.00
12053;DHT22;6087;48.982;12.064;2022-12-01T11:56:38;5.80;1.00
12053;DHT22;6087;48.982;12.064;2022-12-01T11:59:11;5.80;1.00
12053;DHT22;6087;48.982;12.064;2022-12-01T12:02:03;5.70;99.90
12053;DHT22;6087;48.982;12.064;2022-12-01T12:04:46;5.70;1.00
12053;DHT22;6087;48.982;12.064;2022-12-01T12:07:22;5.70;1.00
12053;DHT22;6087;48.982;12.064;2022-12-01T12:10:02;5.80;1.00
12053;DHT22;6087;48.982;12.064;2022-12-01T12:12:44;5.70;99.90
12053;DHT22;6087;48.982;12.064;2022-12-01T12:15:20;5.70;99.90
12053;DHT22;6087;48.982;12.064;2022-12-01T12:18:08;5.70;1.00
12053;DHT22;6087;48.982;12.064;2022-12-01T12:20:50;5.70;1.00
12053;DHT22;6087;48.982;12.064;2022-12-01T12:23:35;5.70;70.10
12053;DHT22;6087;48.982;12.064;2022-12-01T12:26:08;5.70;1.00
12053;DHT22;6087;48.982;12.064;2022-12-01T12:28:51;5.70;1.00
12053;DHT22;6087;48.982;12.064;2022-12-01T12:31:27;5.70;1.00
12053;DHT22;6087;48.982;12.064;2022-12-01T12:34:05;5.70;1.00
12053;DHT22;6087;48.982;12.064;2022-12-01T12:36:43;5.70;1.00
12053;DHT22;6087;48.982;12.064;2022-12-01T12:39:28;5.70;99.90
12053;DHT22;6087;48.982;12.064;2022-12-01T12:41:57;5.70;1.00
12053;DHT22;6087;48.982;12.064;2022-12-01T12:44:38;5.70;1.00
12053;DHT22;6087;48.982;12.064;2022-12-01T12:47:19;5.70;99.90
12053;DHT22;6087;48.982;12.064;2022-12-01T12:49:52;5.70;99.90
12053;DHT22;6087;48.982;12.064;2022-12-01T12:52:25;5.70;1.00
12053;DHT22;6087;48.982;12.064;2022-12-01T12:54:57;5.70;1.00
12053;DHT22;6087;48.982;12.064;2022-12-01T12:57:28;5.70;1.00
12053;DHT22;6087;48.982;12.064;2022-12-01T13:00:02;5.80;99.90
12053;DHT22;6087;48.982;12.064;2022-12-01T13:02:33;5.80;99.90
12053;DHT22;6087;48.982;12.064;2022-12-01T13:05:06;5.80;1.00
12053;DHT22;6087;48.982;12.064;2022-12-01T13:07:41;5.80;1.00
12053;DHT22;6087;48.982;12.064;2022-12-01T13:10:20;5.80;1.00
12053;DHT22;6087;48.982;12.064;2022-12-01T13:12:55;5.80;83.60
12053;DHT22;6087;48.982;12.064;2022-12-01T13:15:24;5.80;99.90
12053;DHT22;6087;48.982;12.064;2022-12-01T13:17:54;5.80;1.00
12053;DHT22;6087;48.982;12.064;2022-12-01T13:20:24;5.80;1.00
12053;DHT22;6087;48.982;12.064;2022-12-01T13:22:56;5.80;99.90
12053;DHT22;6087;48.982;12.064;2022-12-01T13:25:26;5.70;1.00
12053;DHT22;6087;48.982;12.064;2022-12-01T13:27:55;5.80;1.00
12053;DHT22;6087;48.982;12.064;2022-12-01T13:30:25;5.80;99.90
12053;DHT22;6087;48.982;12.064;2022-12-01T13:32:58;5.80;1.00
12053;DHT22;6087;48.982;12.064;2022-12-01T13:35:30;5.80;1.00
12053;DHT22;6087;48.982;12.064;2022-12-01T13:41:30;5.80;1.00
12053;DHT22;6087;48.982;12.064;2022-12-01T13:44:01;5.80;99.90
12053;DHT22;6087;48.982;12.064;2022-12-01T13:46:32;5.70;1.00
12053;DHT22;6087;48.982;12.064;2022-12-01T13:49:32;5.70;99.90
12053;DHT22;6087;48.982;12.064;2022-12-01T13:52:27;5.70;99.90
12053;DHT22;6087;48.982;12.064;2022-12-01T13:58:23;5.60;99.90
12053;DHT22;6087;48.982;12.064;2022-12-01T14:00:50;5.60;99.90
12053;DHT22;6087;48.982;12.064;2022-12-01T14:03:38;5.70;99.90
12053;DHT22;6087;48.982;12.064;2022-12-01T14:06:09;5.60;97.10
12053;DHT22;6087;48.982;12.064;2022-12-01T14:08:46;5.60;1.00
12053;DHT22;6087;48.982;12.064;2022-12-01T14:11:20;5.70;1.00
12053;DHT22;6087;48.982;12.064;2022-12-01T14:13:53;5.70;1.00
12053;DHT22;6087;48.982;12.064;2022-12-01T14:16:22;5.80;99.90
12053;DHT22;6087;48.982;12.064;2022-12-01T14:18:53;5.80;1.00
12053;DHT22;6087;48.982;12.064;2022-12-01T14:21:41;5.90;99.90
12053;DHT22;6087;48.982;12.064;2022-12-01T14:24:20;5.90;92.10
12053;DHT22;6087;48.982;12.064;2022-12-01T14:26:48;5.80;56.10
12053;DHT22;6087;48.982;12.064;2022-12-01T14:29:39;5.80;78.20
12053;DHT22;6087;48.982;12.064;2022-12-01T14:32:22;5.80;99.90
12053;DHT22;6087;48.982;12.064;2022-12-01T14:34:52;5.80;52.30
12053;DHT22;6087;48.982;12.064;2022-12-01T14:37:23;5.80;99.90
12053;DHT22;6087;48.982;12.064;2022-12-01T14:39:56;5.80;99.90
12053;DHT22;6087;48.982;12.064;2022-12-01T14:42:30;5.80;1.00
12053;DHT22;6087;48.982;12.064;2022-12-01T14:45:21;5.80;1.00
12053;DHT22;6087;48.982;12.064;2022-12-01T14:47:55;5.80;1.00
12053;DHT22;6087;48.982;12.064;2022-12-01T14:50:30;5.80;99.90
12053;DHT22;6087;48.982;12.064;2022-12-01T14:53:05;5.80;99.90
12053;DHT22;6087;48.982;12.064;2022-12-01T14:55:37;5.80;99.90
12053;DHT22;6087;48.982;12.064;2022-12-01T14:58:06;5.80;1.00
12053;DHT22;6087;48.982;12.064;2022-12-01T15:00:53;5.80;1.00
12053;DHT22;6087;48.982;12.064;2022-12-01T15:03:21;5.80;1.00
12053;DHT22;6087;48.982;12.064;2022-12-01T15:05:50;5.70;1.00
12053;DHT22;6087;48.982;12.064;2022-12-01T15:08:21;5.70;1.00
12053;DHT22;6087;48.982;12.064;2022-12-01T15:10:50;5.70;1.00
12053;DHT22;6087;48.982;12.064;2022-12-01T15:13:22;5.70;1.00
12053;DHT22;6087;48.982;12.064;2022-12-01T15:15:55;5.70;1.00
12053;DHT22;6087;48.982;12.064;2022-12-01T15:18:26;5.70;1.00
12053;DHT22;6087;48.982;12.064;2022-12-01T15:20:57;5.70;1.00
12053;DHT22;6087;48.982;12.064;2022-12-01T15:23:25;5.70;1.00
12053;DHT22;6087;48.982;12.064;2022-12-01T15:25:52;5.70;1.00
12053;DHT22;6087;48.982;12.064;2022-12-01T15:28:21;5.70;1.00
12053;DHT22;6087;48.982;12.064;2022-12-01T15:30:57;5.70;1.00
12053;DHT22;6087;48.982;12.064;2022-12-01T15:33:28;5.70;89.20
12053;DHT22;6087;48.982;12.064;2022-12-01T15:35:57;5.70;1.00
12053;DHT22;6087;48.982;12.064;2022-12-01T15:38:26;5.70;1.00
12053;DHT22;6087;48.982;12.064;2022-12-01T15:40:55;5.70;1.00
12053;DHT22;6087;48.982;12.064;2022-12-01T15:43:25;5.60;1.00
12053;DHT22;6087;48.982;12.064;2022-12-01T15:45:56;5.60;1.00
12053;DHT22;6087;48.982;12.064;2022-12-01T15:48:27;5.60;1.00
12053;DHT22;6087;48.982;12.064;2022-12-01T15:51:07;5.60;1.00
12053;DHT22;6087;48.982;12.064;2022-12-01T15:53:36;5.60;1.00
12053;DHT22;6087;48.982;12.064;2022-12-01T15:56:06;5.50;1.00
12053;DHT22;6087;48.982;12.064;2022-12-01T15:58:40;5.50;1.00
12053;DHT22;6087;48.982;12.064;2022-12-01T16:01:12;5.50;1.00
12053;DHT22;6087;48.982;12.064;2022-12-01T16:03:52;5.60;1.00
12053;DHT22;6087;48.982;12.064;2022-12-01T16:06:22;5.60;78.90
12053;DHT22;6087;48.982;12.064;2022-12-01T16:08:55;5.60;1.00
12053;DHT22;6087;48.982;12.064;2022-12-01T16:11:24;5.60;1.00
12053;DHT22;6087;48.982;12.064;2022-12-01T16:13:59;5.60;1.00
12053;DHT22;6087;48.982;12.064;2022-12-01T16:16:38;5.60;99.90
12053;DHT22;6087;48.982;12.064;2022-12-01T16:19:32;5.60;1.00
12053;DHT22;6087;48.982;12.064;2022-12-01T16:22:03;5.60;34.40
12053;DHT22;6087;48.982;12.064;2022-12-01T16:24:43;5.60;1.70
12053;DHT22;6087;48.982;12.064;2022-12-01T16:27:19;5.60;25.90
12053;DHT22;6087;48.982;12.064;2022-12-01T16:29:49;5.60;99.90